Time,TemperatureF,DewpointF,PressureIn,WindDirection,WindDirectionDegrees,WindSpeedMPH,WindSpeedGustMPH,Humidity,HourlyPrecipIn,Conditions,Clouds,dailyrainin,SoftwareType,DateUTC
2013-02-19 00:00:00,42.1,30.0,29.97,SE,130,5.0,0.0,62,0.00,BKN,OVC,0.00,WeatherDisplay:10.37,2013-02-19 05:00:00,
2013-02-19 00:02:00,42.1,30.0,29.97,SE,130,4.6,4.6,62,0.00,BKN,OVC,0.00,WeatherDisplay:10.37,2013-02-19 05:02:00,
2013-02-19 00:07:00,41.9,29.8,29.97,SE,130,4.6,4.6,62,0.00,BKN,OVC,0.00,WeatherDisplay:10.37,2013-02-19 05:07:00,
2013-02-19 00:12:00,42.1,30.4,29.96,SE,130,4.6,4.6,63,0.00,BKN,OVC,0.00,WeatherDisplay:10.37,2013-02-19 05:12:00,
2013-02-19 00:17:00,42.1,30.8,29.96,SE,130,4.6,4.6,64,0.00,OVC,,0.00,WeatherDisplay:10.37,2013-02-19 05:17:00,
2013-02-19 00:22:00,42.1,30.8,29.96,SE,130,4.6,4.6,64,0.00,OVC,,0.00,WeatherDisplay:10.37,2013-02-19 05:22:00,
2013-02-19 00:27:00,42.1,30.8,29.96,SE,130,4.6,4.6,64,0.00,OVC,,0.00,WeatherDisplay:10.37,2013-02-19 05:27:00,
2013-02-19 00:32:00,42.4,31.1,29.96,SE,130,4.6,4.6,64,0.00,OVC,,0.00,WeatherDisplay:10.37,2013-02-19 05:32:00,
2013-02-19 00:37:00,42.4,30.7,29.95,SE,130,4.6,4.6,63,0.00,OVC,,0.00,WeatherDisplay:10.37,2013-02-19 05:37:00,
2013-02-19 00:42:00,42.6,30.5,29.96,SE,130,4.6,4.6,62,0.00,OVC,,0.00,WeatherDisplay:10.37,2013-02-19 05:42:00,
2013-02-19 00:47:00,42.6,30.9,29.95,SE,130,4.6,4.6,63,0.00,OVC,,0.00,WeatherDisplay:10.37,2013-02-19 05:47:00,
2013-02-19 00:52:00,43.0,30.8,29.94,SE,130,4.6,4.6,62,0.00,OVC,,0.00,WeatherDisplay:10.37,2013-02-19 05:52:00,
2013-02-19 00:57:00,43.0,30.4,29.93,SE,130,4.6,4.6,61,0.00,OVC,,0.00,WeatherDisplay:10.37,2013-02-19 05:57:00,
2013-02-19 01:02:00,43.0,30.0,29.93,SE,130,4.6,4.6,60,0.00,OVC,,0.00,WeatherDisplay:10.37,2013-02-19 06:02:00,
2013-02-19 01:07:00,43.0,30.0,29.93,SE,130,4.6,4.6,60,0.00,OVC,,0.00,WeatherDisplay:10.37,2013-02-19 06:07:00,
2013-02-19 01:12:00,43.3,30.4,29.93,SE,130,4.6,4.6,60,0.00,OVC,,0.00,WeatherDisplay:10.37,2013-02-19 06:12:00,
2013-02-19 01:17:00,43.3,30.0,29.93,ESE,120,4.6,4.6,59,0.00,OVC,,0.00,WeatherDisplay:10.37,2013-02-19 06:17:00,
2013-02-19 01:22:00,43.5,29.7,29.93,ESE,120,4.6,4.6,58,0.00,OVC,,0.00,WeatherDisplay:10.37,2013-02-19 06:22:00,
2013-02-19 01:27:00,43.5,29.3,29.93,ESE,120,4.6,4.6,57,0.00,OVC,,0.00,WeatherDisplay:10.37,2013-02-19 06:27:00,
2013-02-19 01:32:00,43.5,29.3,29.92,ESE,120,4.6,4.6,57,0.00,OVC,,0.00,WeatherDisplay:10.37,2013-02-19 06:32:00,
2013-02-19 01:37:00,43.7,29.0,29.92,ESE,120,4.6,4.6,56,0.00,OVC,,0.00,WeatherDisplay:10.37,2013-02-19 06:37:00,
2013-02-19 01:42:00,43.9,29.2,29.91,ESE,120,4.6,4.6,56,0.00,OVC,,0.00,WeatherDisplay:10.37,2013-02-19 06:42:00,
2013-02-19 01:47:00,43.9,29.2,29.92,ESE,120,4.6,4.6,56,0.00,OVC,,0.00,WeatherDisplay:10.37,2013-02-19 06:47:00,
2013-02-19 01:52:00,44.1,28.9,29.92,ESE,120,4.6,4.6,55,0.00,OVC,,0.00,WeatherDisplay:10.37,2013-02-19 06:52:00,
2013-02-19 01:57:00,44.1,28.0,29.91,ESE,120,4.6,4.6,53,0.00,OVC,,0.00,WeatherDisplay:10.37,2013-02-19 06:57:00,
2013-02-19 02:02:00,44.1,28.5,29.91,ESE,120,4.6,4.6,54,0.00,OVC,,0.00,WeatherDisplay:10.37,2013-02-19 07:02:00,
2013-02-19 02:07:00,44.2,28.2,29.90,ESE,120,4.6,4.6,53,0.00,OVC,,0.00,WeatherDisplay:10.37,2013-02-19 07:07:00,
2013-02-19 02:12:00,44.2,28.2,29.90,ESE,120,4.6,4.6,53,0.00,OVC,,0.00,WeatherDisplay:10.37,2013-02-19 07:12:00,
2013-02-19 02:17:00,44.1,28.0,29.90,SE,130,4.6,4.6,53,0.00,OVC,,0.00,WeatherDisplay:10.37,2013-02-19 07:17:00,
2013-02-19 02:22:00,44.1,28.0,29.91,SE,130,4.6,4.6,53,0.00,OVC,,0.00,WeatherDisplay:10.37,2013-02-19 07:22:00,
2013-02-19 02:27:00,44.1,28.0,29.91,SE,130,4.6,4.6,53,0.00,OVC,,0.00,WeatherDisplay:10.37,2013-02-19 07:27:00,
2013-02-19 02:32:00,44.1,28.0,29.91,SE,130,4.6,4.6,53,0.00,OVC,,0.00,WeatherDisplay:10.37,2013-02-19 07:32:00,
2013-02-19 02:37:00,44.1,28.0,29.91,SE,130,4.6,4.6,53,0.00,OVC,,0.00,WeatherDisplay:10.37,2013-02-19 07:37:00,
2013-02-19 02:42:00,44.1,28.0,29.91,SE,130,4.6,4.6,53,0.00,OVC,,0.00,WeatherDisplay:10.37,2013-02-19 07:42:00,
2013-02-19 02:47:00,43.9,27.8,29.91,SE,130,4.6,4.6,53,0.00,OVC,,0.00,WeatherDisplay:10.37,2013-02-19 07:47:00,
2013-02-19 02:52:00,43.9,27.8,29.90,SE,130,4.6,4.6,53,0.00,OVC,,0.00,WeatherDisplay:10.37,2013-02-19 07:52:00,
2013-02-19 02:57:00,43.9,27.8,29.90,SE,130,4.6,4.6,53,0.00,OVC,,0.00,WeatherDisplay:10.37,2013-02-19 07:57:00,
2013-02-19 03:02:00,43.9,27.8,29.89,SE,130,4.6,4.6,53,0.00,OVC,,0.00,WeatherDisplay:10.37,2013-02-19 08:02:00,
2013-02-19 03:07:00,43.7,28.1,29.89,SE,130,4.6,4.6,54,0.00,OVC,,0.00,WeatherDisplay:10.37,2013-02-19 08:07:00,
2013-02-19 03:12:00,43.7,28.1,29.89,SE,130,4.6,4.6,54,0.00,OVC,,0.00,WeatherDisplay:10.37,2013-02-19 08:12:00,
2013-02-19 03:17:00,43.7,28.1,29.89,SE,140,4.6,4.6,54,0.00,OVC,,0.00,WeatherDisplay:10.37,2013-02-19 08:17:00,
2013-02-19 03:22:00,43.7,28.1,29.89,SE,140,4.6,4.6,54,0.00,OVC,,0.00,WeatherDisplay:10.37,2013-02-19 08:22:00,
2013-02-19 03:27:00,43.5,28.0,29.88,SE,140,4.6,4.6,54,0.00,OVC,,0.00,WeatherDisplay:10.37,2013-02-19 08:27:00,
2013-02-19 03:32:00,43.5,28.0,29.89,SE,140,4.6,4.6,54,0.00,OVC,,0.00,WeatherDisplay:10.37,2013-02-19 08:32:00,
2013-02-19 03:37:00,43.5,28.0,29.90,SE,140,4.6,4.6,54,0.00,OVC,,0.00,WeatherDisplay:10.37,2013-02-19 08:37:00,
2013-02-19 03:42:00,43.5,28.8,29.89,SE,140,4.6,4.6,56,0.00,OVC,,0.00,WeatherDisplay:10.37,2013-02-19 08:42:00,
2013-02-19 03:47:00,43.3,29.5,29.88,SE,140,4.6,4.6,58,0.00,OVC,,0.00,WeatherDisplay:10.37,2013-02-19 08:47:00,
2013-02-19 03:52:00,43.2,30.2,29.90,SE,140,4.6,4.6,60,0.00,OVC,,0.00,WeatherDisplay:10.37,2013-02-19 08:52:00,
2013-02-19 03:57:00,42.6,31.7,29.91,SE,140,4.6,4.6,65,0.00,OVC,,0.00,WeatherDisplay:10.37,2013-02-19 08:57:00,
2013-02-19 04:02:00,42.1,31.2,29.91,SE,140,4.6,4.6,65,0.00,OVC,,0.00,WeatherDisplay:10.37,2013-02-19 09:02:00,
2013-02-19 04:07:00,41.4,31.9,29.91,SE,140,4.6,4.6,69,0.00,OVC,,0.00,WeatherDisplay:10.37,2013-02-19 09:07:00,
2013-02-19 04:12:00,40.8,31.8,29.91,SE,140,4.6,4.6,70,0.00,OVC,,0.00,WeatherDisplay:10.37,2013-02-19 09:12:00,
2013-02-19 04:17:00,40.6,31.6,29.90,ESE,120,4.6,4.6,70,0.00,OVC,,0.00,WeatherDisplay:10.37,2013-02-19 09:17:00,
2013-02-19 04:22:00,40.5,31.4,29.90,ESE,120,4.6,4.6,70,0.00,OVC,,0.00,WeatherDisplay:10.37,2013-02-19 09:22:00,
2013-02-19 04:27:00,40.1,32.1,29.89,ESE,120,4.6,4.6,73,0.00,OVC,,0.00,WeatherDisplay:10.37,2013-02-19 09:27:00,
2013-02-19 04:32:00,39.9,32.0,29.89,ESE,120,4.6,4.6,73,0.00,OVC,,0.00,WeatherDisplay:10.37,2013-02-19 09:32:00,
2013-02-19 04:37:00,39.7,32.1,29.89,ESE,120,4.6,4.6,74,0.00,OVC,,0.00,WeatherDisplay:10.37,2013-02-19 09:37:00,
2013-02-19 04:42:00,39.7,32.5,29.88,ESE,120,4.6,4.6,75,0.00,OVC,,0.00,WeatherDisplay:10.37,2013-02-19 09:42:00,
2013-02-19 04:47:00,39.6,32.6,29.90,ESE,120,4.6,4.6,76,0.00,OVC,,0.00,WeatherDisplay:10.37,2013-02-19 09:47:00,
2013-02-19 04:52:00,39.4,33.1,29.93,ESE,120,4.6,4.6,78,0.00,OVC,,0.00,WeatherDisplay:10.37,2013-02-19 09:52:00,
2013-02-19 04:57:00,39.6,33.3,29.92,ESE,120,4.6,4.6,78,0.00,OVC,,0.00,WeatherDisplay:10.37,2013-02-19 09:57:00,
2013-02-19 05:02:00,39.4,33.1,29.91,ESE,120,4.6,4.6,78,0.00,OVC,,0.00,WeatherDisplay:10.37,2013-02-19 10:02:00,
2013-02-19 05:07:00,39.4,33.1,29.91,ESE,120,4.6,4.6,78,0.00,OVC,,0.00,WeatherDisplay:10.37,2013-02-19 10:07:00,
2013-02-19 05:12:00,39.2,32.9,29.89,ESE,120,4.6,4.6,78,0.00,OVC,,0.00,WeatherDisplay:10.37,2013-02-19 10:12:00,
2013-02-19 05:17:00,39.0,32.7,29.89,ESE,120,4.6,0.0,78,0.00,-RA,OVC,0.00,WeatherDisplay:10.37,2013-02-19 10:17:00,
2013-02-19 05:22:00,39.0,33.1,29.89,ESE,120,0.0,0.0,79,0.00,-RA,OVC,0.00,WeatherDisplay:10.37,2013-02-19 10:22:00,
2013-02-19 05:27:00,39.0,33.1,29.90,ESE,120,0.0,0.0,79,0.00,-RA,OVC,0.00,WeatherDisplay:10.37,2013-02-19 10:27:00,
2013-02-19 05:32:00,39.0,33.4,29.90,ESE,120,0.0,0.0,80,0.00,-RA,OVC,0.00,WeatherDisplay:10.37,2013-02-19 10:32:00,
2013-02-19 05:37:00,39.0,33.1,29.91,ESE,120,0.0,0.0,79,0.00,-RA,OVC,0.00,WeatherDisplay:10.37,2013-02-19 10:37:00,
2013-02-19 05:42:00,39.0,33.4,29.91,ESE,120,0.0,0.0,80,0.00,-RA,OVC,0.00,WeatherDisplay:10.37,2013-02-19 10:42:00,
2013-02-19 05:47:00,39.0,33.4,29.90,ESE,120,0.0,0.0,80,0.00,-RA,OVC,0.00,WeatherDisplay:10.37,2013-02-19 10:47:00,
2013-02-19 05:52:00,39.0,33.4,29.91,ESE,120,0.0,0.0,80,0.00,-RA,OVC,0.00,WeatherDisplay:10.37,2013-02-19 10:52:00,
2013-02-19 05:57:00,39.0,33.4,29.90,ESE,120,0.0,0.0,80,0.00,-RA,OVC,0.00,WeatherDisplay:10.37,2013-02-19 10:57:00,
2013-02-19 06:02:00,39.0,33.4,29.90,ESE,120,0.0,0.0,80,0.00,-RA,OVC,0.00,WeatherDisplay:10.37,2013-02-19 11:02:00,
2013-02-19 06:07:00,39.0,33.7,29.91,ESE,120,0.0,0.0,81,0.00,-RA,OVC,0.00,WeatherDisplay:10.37,2013-02-19 11:07:00,
2013-02-19 06:12:00,39.0,33.7,29.93,ESE,120,0.0,0.0,81,0.00,-RA,OVC,0.00,WeatherDisplay:10.37,2013-02-19 11:12:00,
2013-02-19 06:17:00,39.0,33.7,29.92,NNE,20,3.5,3.5,81,0.00,-RA,OVC,0.00,WeatherDisplay:10.37,2013-02-19 11:17:00,
2013-02-19 06:22:00,39.0,33.7,29.92,NNE,20,3.5,3.5,81,0.00,-RA,OVC,0.00,WeatherDisplay:10.37,2013-02-19 11:22:00,
2013-02-19 06:27:00,39.0,33.7,29.91,NNE,20,3.5,3.5,81,0.00,-RA,OVC,0.00,WeatherDisplay:10.37,2013-02-19 11:27:00,
2013-02-19 06:32:00,39.0,34.0,29.91,NNE,20,3.5,3.5,82,0.00,-RA,OVC,0.00,WeatherDisplay:10.37,2013-02-19 11:32:00,
2013-02-19 06:37:00,39.0,34.0,29.91,NNE,20,3.5,3.5,82,0.00,-RA,OVC,0.00,WeatherDisplay:10.37,2013-02-19 11:37:00,
2013-02-19 06:42:00,39.0,34.0,29.92,NNE,20,3.5,3.5,82,0.00,-RA,OVC,0.00,WeatherDisplay:10.37,2013-02-19 11:42:00,
2013-02-19 06:47:00,38.8,33.8,29.91,NNE,20,3.5,3.5,82,0.00,-RA,OVC,0.00,WeatherDisplay:10.37,2013-02-19 11:47:00,
2013-02-19 06:52:00,38.8,33.8,29.90,NNE,20,3.5,3.5,82,0.00,-RA,OVC,0.00,WeatherDisplay:10.37,2013-02-19 11:52:00,
2013-02-19 06:57:00,38.8,33.8,29.90,NNE,20,3.5,3.5,82,0.00,-RA,OVC,0.00,WeatherDisplay:10.37,2013-02-19 11:57:00,
2013-02-19 07:02:00,38.8,33.8,29.89,NNE,20,3.5,3.5,82,0.00,-RA,OVC,0.00,WeatherDisplay:10.37,2013-02-19 12:02:00,
2013-02-19 07:07:00,38.8,34.1,29.89,NNE,20,3.5,3.5,83,0.00,-RA,OVC,0.00,WeatherDisplay:10.37,2013-02-19 12:07:00,
2013-02-19 07:12:00,38.8,34.1,29.89,NNE,20,3.5,3.5,83,0.00,-RA,OVC,0.00,WeatherDisplay:10.37,2013-02-19 12:12:00,
2013-02-19 07:17:00,38.8,34.1,29.88,NNE,20,3.5,0.0,83,0.00,-RA,OVC,0.00,WeatherDisplay:10.37,2013-02-19 12:17:00,
2013-02-19 07:22:00,38.5,34.1,29.87,NNE,20,0.0,0.0,84,0.00,-RA,OVC,0.00,WeatherDisplay:10.37,2013-02-19 12:22:00,
2013-02-19 07:27:00,38.5,34.1,29.86,NNE,20,0.0,0.0,84,0.00,-RA,OVC,0.00,WeatherDisplay:10.37,2013-02-19 12:27:00,
2013-02-19 07:32:00,38.5,34.1,29.87,NNE,20,0.0,0.0,84,0.00,-RA,OVC,0.00,WeatherDisplay:10.37,2013-02-19 12:32:00,
2013-02-19 07:37:00,38.7,34.5,29.87,NNE,20,0.0,0.0,85,0.00,-RA,OVC,0.00,WeatherDisplay:10.37,2013-02-19 12:37:00,
2013-02-19 07:42:00,38.5,34.4,29.88,NNE,20,0.0,0.0,85,0.00,-RA,OVC,0.00,WeatherDisplay:10.37,2013-02-19 12:42:00,
2013-02-19 07:47:00,38.7,34.5,29.88,East,100,5.8,5.8,85,0.00,-RA,OVC,0.00,WeatherDisplay:10.37,2013-02-19 12:47:00,
2013-02-19 07:52:00,38.8,34.7,29.88,East,100,5.8,5.8,85,0.00,-RA,OVC,0.00,WeatherDisplay:10.37,2013-02-19 12:52:00,
2013-02-19 07:57:00,38.8,34.7,29.88,East,100,5.8,5.8,85,0.00,-RA,OVC,0.00,WeatherDisplay:10.37,2013-02-19 12:57:00,
2013-02-19 08:02:00,38.8,34.7,29.88,East,100,5.8,5.8,85,0.00,-RA,OVC,0.00,WeatherDisplay:10.37,2013-02-19 13:02:00,
2013-02-19 08:07:00,38.8,34.7,29.87,East,100,5.8,5.8,85,0.00,-RA,OVC,0.00,WeatherDisplay:10.37,2013-02-19 13:07:00,
2013-02-19 08:12:00,38.8,34.7,29.88,East,100,5.8,5.8,85,0.00,-RA,OVC,0.00,WeatherDisplay:10.37,2013-02-19 13:12:00,
2013-02-19 08:17:00,38.8,34.7,29.88,ESE,120,5.8,5.8,85,0.00,-RA,OVC,0.00,WeatherDisplay:10.37,2013-02-19 13:17:00,
2013-02-19 08:22:00,38.8,35.0,29.88,ESE,120,4.6,4.6,86,0.00,-RA,OVC,0.00,WeatherDisplay:10.37,2013-02-19 13:22:00,
2013-02-19 08:27:00,39.0,35.2,29.88,ESE,120,4.6,4.6,86,0.00,-RA,OVC,0.00,WeatherDisplay:10.37,2013-02-19 13:27:00,
2013-02-19 08:32:00,38.8,35.0,29.88,ESE,120,4.6,4.6,86,0.00,-RA,OVC,0.00,WeatherDisplay:10.37,2013-02-19 13:32:00,
2013-02-19 08:37:00,39.0,35.2,29.87,ESE,120,4.6,4.6,86,0.00,-RA,OVC,0.00,WeatherDisplay:10.37,2013-02-19 13:37:00,
2013-02-19 08:42:00,39.0,35.2,29.88,ESE,120,4.6,4.6,86,0.00,-RA,OVC,0.00,WeatherDisplay:10.37,2013-02-19 13:42:00,
2013-02-19 08:47:00,39.4,35.5,29.88,ESE,110,4.6,4.6,86,0.00,-RA,OVC,0.00,WeatherDisplay:10.37,2013-02-19 13:47:00,
2013-02-19 08:52:00,39.4,35.5,29.88,ESE,110,4.6,4.6,86,0.00,-RA,OVC,0.00,WeatherDisplay:10.37,2013-02-19 13:52:00,
2013-02-19 08:57:00,39.4,35.5,29.88,ESE,110,4.6,4.6,86,0.00,-RA,OVC,0.00,WeatherDisplay:10.37,2013-02-19 13:57:00,
2013-02-19 09:02:00,39.6,35.7,29.88,ESE,110,4.6,4.6,86,0.00,-RA,OVC,0.00,WeatherDisplay:10.37,2013-02-19 14:02:00,
2013-02-19 09:07:00,39.6,35.7,29.88,ESE,110,4.6,4.6,86,0.00,-RA,OVC,0.00,WeatherDisplay:10.37,2013-02-19 14:07:00,
2013-02-19 09:12:00,39.7,35.9,29.88,ESE,110,4.6,4.6,86,0.00,-RA,OVC,0.00,WeatherDisplay:10.37,2013-02-19 14:12:00,
2013-02-19 09:17:00,39.7,35.9,29.88,ESE,120,5.8,5.8,86,0.00,-RA,OVC,0.00,WeatherDisplay:10.37,2013-02-19 14:17:00,
2013-02-19 09:22:00,39.7,35.9,29.88,ESE,120,5.8,5.8,86,0.00,-RA,OVC,0.00,WeatherDisplay:10.37,2013-02-19 14:22:00,
2013-02-19 09:27:00,39.9,36.1,29.88,ESE,120,5.8,5.8,86,0.00,-RA,OVC,0.00,WeatherDisplay:10.37,2013-02-19 14:27:00,
2013-02-19 09:32:00,48.4,42.8,29.88,ESE,120,5.8,5.8,81,0.10,-RA,OVC,0.10,WeatherDisplay:10.37,2013-02-19 14:32:00,
2013-02-19 09:37:00,45.3,39.8,29.88,ESE,120,5.8,5.8,81,0.35,-RA,OVC,0.35,WeatherDisplay:10.37,2013-02-19 14:37:00,
2013-02-19 09:42:00,44.2,39.1,29.88,ESE,120,5.8,5.8,82,0.43,-RA,OVC,0.43,WeatherDisplay:10.37,2013-02-19 14:42:00,
2013-02-19 09:47:00,43.2,37.7,29.88,ESE,120,5.8,0.0,81,0.43,RA,OVC,0.43,WeatherDisplay:10.37,2013-02-19 14:47:00,
2013-02-19 09:52:00,42.4,37.3,29.87,ESE,120,0.0,0.0,82,0.43,OVC,,0.43,WeatherDisplay:10.37,2013-02-19 14:52:00,
2013-02-19 09:57:00,41.9,37.1,29.88,ESE,120,0.0,0.0,83,0.43,OVC,,0.43,WeatherDisplay:10.37,2013-02-19 14:57:00,
2013-02-19 10:02:00,41.5,36.8,29.88,ESE,120,0.0,0.0,83,0.43,OVC,,0.43,WeatherDisplay:10.37,2013-02-19 15:02:00,
2013-02-19 10:07:00,40.8,36.1,29.88,ESE,120,0.0,0.0,83,0.43,OVC,,0.43,WeatherDisplay:10.37,2013-02-19 15:07:00,
2013-02-19 10:12:00,40.8,36.4,29.88,ESE,120,0.0,0.0,84,0.43,OVC,,0.43,WeatherDisplay:10.37,2013-02-19 15:12:00,
2013-02-19 10:17:00,40.6,36.2,29.87,ESE,120,0.0,0.0,84,0.43,OVC,,0.43,WeatherDisplay:10.37,2013-02-19 15:17:00,
2013-02-19 10:22:00,40.6,36.5,29.88,ESE,120,0.0,0.0,85,0.43,OVC,,0.43,WeatherDisplay:10.37,2013-02-19 15:22:00,
2013-02-19 10:27:00,40.5,36.3,29.88,ESE,120,0.0,0.0,85,0.43,OVC,,0.43,WeatherDisplay:10.37,2013-02-19 15:27:00,
2013-02-19 10:32:00,40.6,36.5,29.88,ESE,120,0.0,0.0,85,0.33,OVC,,0.43,WeatherDisplay:10.37,2013-02-19 15:32:00,
2013-02-19 10:37:00,40.5,36.6,29.88,ESE,120,0.0,0.0,86,0.08,OVC,,0.43,WeatherDisplay:10.37,2013-02-19 15:37:00,
2013-02-19 10:42:00,40.6,36.8,29.88,ESE,120,0.0,0.0,86,0.00,OVC,,0.43,WeatherDisplay:10.37,2013-02-19 15:42:00,
2013-02-19 10:47:00,40.5,36.6,29.88,ESE,120,0.0,0.0,86,0.00,OVC,,0.43,WeatherDisplay:10.37,2013-02-19 15:47:00,
2013-02-19 10:52:00,40.3,36.4,29.88,ESE,120,0.0,0.0,86,0.00,OVC,,0.43,WeatherDisplay:10.37,2013-02-19 15:52:00,
2013-02-19 10:57:00,40.3,36.4,29.88,ESE,120,0.0,0.0,86,0.00,OVC,,0.43,WeatherDisplay:10.37,2013-02-19 15:57:00,
2013-02-19 11:02:00,40.1,36.5,29.88,ESE,120,0.0,0.0,87,0.00,OVC,,0.43,WeatherDisplay:10.37,2013-02-19 16:02:00,
2013-02-19 11:07:00,40.3,36.7,29.87,ESE,120,0.0,0.0,87,0.00,OVC,,0.43,WeatherDisplay:10.37,2013-02-19 16:07:00,
2013-02-19 11:12:00,40.3,36.7,29.88,ESE,120,0.0,0.0,87,0.00,OVC,,0.43,WeatherDisplay:10.37,2013-02-19 16:12:00,
2013-02-19 11:17:00,40.5,36.9,29.88,NW,310,3.5,3.5,87,0.00,OVC,,0.43,WeatherDisplay:10.37,2013-02-19 16:17:00,
2013-02-19 11:22:00,40.6,37.1,29.88,NW,310,3.5,3.5,87,0.00,OVC,,0.43,WeatherDisplay:10.37,2013-02-19 16:22:00,
2013-02-19 11:27:00,40.6,37.1,29.88,NW,310,3.5,3.5,87,0.00,OVC,,0.43,WeatherDisplay:10.37,2013-02-19 16:27:00,
2013-02-19 11:32:00,40.6,37.1,29.88,NW,310,3.5,3.5,87,0.00,OVC,,0.43,WeatherDisplay:10.37,2013-02-19 16:32:00,
2013-02-19 11:37:00,40.6,37.1,29.88,NW,310,3.5,3.5,87,0.00,OVC,,0.43,WeatherDisplay:10.37,2013-02-19 16:37:00,
2013-02-19 11:42:00,40.8,37.3,29.88,NW,310,3.5,3.5,87,0.00,OVC,,0.43,WeatherDisplay:10.37,2013-02-19 16:42:00,
2013-02-19 11:47:00,40.8,37.5,29.87,NW,310,3.5,0.0,88,0.00,OVC,,0.43,WeatherDisplay:10.37,2013-02-19 16:47:00,
2013-02-19 11:52:00,41.0,37.7,29.87,NW,310,0.0,0.0,88,0.00,OVC,,0.43,WeatherDisplay:10.37,2013-02-19 16:52:00,
2013-02-19 11:57:00,41.0,37.7,29.87,NW,310,0.0,0.0,88,0.00,OVC,,0.43,WeatherDisplay:10.37,2013-02-19 16:57:00,
2013-02-19 12:02:00,41.2,37.9,29.87,NW,310,0.0,0.0,88,0.00,OVC,,0.43,WeatherDisplay:10.37,2013-02-19 17:02:00,
2013-02-19 12:07:00,41.2,37.9,29.87,NW,310,0.0,0.0,88,0.00,OVC,,0.43,WeatherDisplay:10.37,2013-02-19 17:07:00,
2013-02-19 12:12:00,41.4,38.1,29.88,NW,310,0.0,0.0,88,0.00,OVC,,0.43,WeatherDisplay:10.37,2013-02-19 17:12:00,
2013-02-19 12:17:00,41.5,38.3,29.87,West,260,4.6,4.6,88,0.00,OVC,,0.43,WeatherDisplay:10.37,2013-02-19 17:17:00,
2013-02-19 12:22:00,41.5,38.3,29.87,West,260,4.6,4.6,88,0.00,OVC,,0.43,WeatherDisplay:10.37,2013-02-19 17:22:00,
2013-02-19 12:27:00,41.9,38.9,29.87,West,260,4.6,4.6,89,0.00,OVC,,0.43,WeatherDisplay:10.37,2013-02-19 17:27:00,
2013-02-19 12:32:00,42.4,39.4,29.87,West,260,4.6,4.6,89,0.00,OVC,,0.43,WeatherDisplay:10.37,2013-02-19 17:32:00,
2013-02-19 12:37:00,42.4,39.4,29.86,West,260,4.6,4.6,89,0.00,OVC,,0.43,WeatherDisplay:10.37,2013-02-19 17:37:00,
2013-02-19 12:42:00,42.6,39.6,29.86,West,260,4.6,4.6,89,0.00,OVC,,0.43,WeatherDisplay:10.37,2013-02-19 17:42:00,
2013-02-19 12:47:00,43.0,40.0,29.86,West,260,4.6,4.6,89,0.00,OVC,,0.43,WeatherDisplay:10.37,2013-02-19 17:47:00,
2013-02-19 12:52:00,43.3,40.3,29.86,West,260,4.6,4.6,89,0.00,OVC,,0.43,WeatherDisplay:10.37,2013-02-19 17:52:00,
2013-02-19 12:57:00,43.5,40.5,29.86,West,260,4.6,4.6,89,0.00,OVC,,0.43,WeatherDisplay:10.37,2013-02-19 17:57:00,
2013-02-19 13:02:00,43.9,41.1,29.86,West,260,4.6,4.6,90,0.00,OVC,,0.43,WeatherDisplay:10.37,2013-02-19 18:02:00,
2013-02-19 13:07:00,44.1,41.0,29.86,West,260,4.6,4.6,89,0.00,OVC,,0.43,WeatherDisplay:10.37,2013-02-19 18:07:00,
2013-02-19 13:12:00,44.2,41.2,29.86,West,260,4.6,4.6,89,0.00,OVC,,0.43,WeatherDisplay:10.37,2013-02-19 18:12:00,
2013-02-19 13:17:00,44.4,41.4,29.86,West,260,4.6,4.6,89,0.00,OVC,,0.43,WeatherDisplay:10.37,2013-02-19 18:17:00,
2013-02-19 13:22:00,44.4,41.4,29.85,West,260,4.6,4.6,89,0.00,OVC,,0.43,WeatherDisplay:10.37,2013-02-19 18:22:00,
2013-02-19 13:27:00,44.6,41.3,29.85,West,260,4.6,4.6,88,0.00,OVC,,0.43,WeatherDisplay:10.37,2013-02-19 18:27:00,
2013-02-19 13:32:00,45.0,41.6,29.85,West,260,4.6,4.6,88,0.00,OVC,,0.43,WeatherDisplay:10.37,2013-02-19 18:32:00,
2013-02-19 13:37:00,45.1,41.8,29.84,West,260,4.6,4.6,88,0.00,OVC,,0.43,WeatherDisplay:10.37,2013-02-19 18:37:00,
2013-02-19 13:42:00,45.3,42.0,29.84,West,260,4.6,4.6,88,0.00,OVC,,0.43,WeatherDisplay:10.37,2013-02-19 18:42:00,
2013-02-19 13:47:00,45.7,42.3,29.84,West,280,25.3,25.3,88,0.00,OVC,,0.43,WeatherDisplay:10.37,2013-02-19 18:47:00,
2013-02-19 13:52:00,46.0,42.7,29.84,West,280,25.3,25.3,88,0.00,OVC,,0.43,WeatherDisplay:10.37,2013-02-19 18:52:00,
2013-02-19 13:57:00,46.2,42.9,29.83,West,280,25.3,25.3,88,0.00,SCT,OVC,0.43,WeatherDisplay:10.37,2013-02-19 18:57:00,
2013-02-19 14:02:00,46.6,42.9,29.83,West,280,25.3,25.3,87,0.00,OVC,,0.43,WeatherDisplay:10.37,2013-02-19 19:02:00,
2013-02-19 14:07:00,46.9,43.0,29.83,West,280,25.3,25.3,86,0.00,OVC,,0.43,WeatherDisplay:10.37,2013-02-19 19:07:00,
2013-02-19 14:12:00,47.3,43.3,29.83,West,280,25.3,25.3,86,0.00,OVC,,0.43,WeatherDisplay:10.37,2013-02-19 19:12:00,
2013-02-19 14:17:00,47.8,43.5,29.83,WNW,290,25.3,25.3,85,0.00,OVC,,0.43,WeatherDisplay:10.37,2013-02-19 19:17:00,
2013-02-19 14:22:00,48.0,43.4,29.83,WNW,290,11.5,11.5,84,0.00,OVC,,0.43,WeatherDisplay:10.37,2013-02-19 19:22:00,
2013-02-19 14:27:00,48.0,43.4,29.83,WNW,290,11.5,11.5,84,0.00,OVC,,0.43,WeatherDisplay:10.37,2013-02-19 19:27:00,
2013-02-19 14:32:00,48.4,43.5,29.82,WNW,290,11.5,11.5,83,0.00,OVC,,0.43,WeatherDisplay:10.37,2013-02-19 19:32:00,
2013-02-19 14:37:00,48.7,43.8,29.82,WNW,290,11.5,11.5,83,0.00,OVC,,0.43,WeatherDisplay:10.37,2013-02-19 19:37:00,
2013-02-19 14:42:00,48.9,44.0,29.82,WNW,290,11.5,11.5,83,0.00,OVC,,0.43,WeatherDisplay:10.37,2013-02-19 19:42:00,
2013-02-19 14:47:00,49.3,43.7,29.82,West,280,11.5,11.5,81,0.00,SCT,OVC,0.43,WeatherDisplay:10.37,2013-02-19 19:47:00,
2013-02-19 14:52:00,49.3,43.4,29.82,West,280,10.4,10.4,80,0.00,SCT,OVC,0.43,WeatherDisplay:10.37,2013-02-19 19:52:00,
2013-02-19 14:57:00,49.6,43.1,29.82,West,280,10.4,10.4,78,0.00,SCT,OVC,0.43,WeatherDisplay:10.37,2013-02-19 19:57:00,
2013-02-19 15:02:00,49.8,42.6,29.82,West,280,10.4,10.4,76,0.00,SCT,OVC,0.43,WeatherDisplay:10.37,2013-02-19 20:02:00,
2013-02-19 15:07:00,50.2,42.9,29.82,West,280,10.4,10.4,76,0.00,SCT,OVC,0.43,WeatherDisplay:10.37,2013-02-19 20:07:00,
2013-02-19 15:12:00,50.5,42.9,29.81,West,280,10.4,10.4,75,0.00,SCT,OVC,0.43,WeatherDisplay:10.37,2013-02-19 20:12:00,
2013-02-19 15:17:00,50.7,42.4,29.81,West,270,27.6,27.6,73,0.00,CLR,OVC,0.43,WeatherDisplay:10.37,2013-02-19 20:17:00,
2013-02-19 15:22:00,50.9,42.2,29.81,West,270,27.6,27.6,72,0.00,CLR,OVC,0.43,WeatherDisplay:10.37,2013-02-19 20:22:00,
2013-02-19 15:27:00,51.3,41.8,29.81,West,270,27.6,27.6,70,0.00,CLR,OVC,0.43,WeatherDisplay:10.37,2013-02-19 20:27:00,
2013-02-19 15:32:00,52.0,42.1,29.81,West,270,27.6,27.6,69,0.00,CLR,OVC,0.43,WeatherDisplay:10.37,2013-02-19 20:32:00,
2013-02-19 15:37:00,52.2,41.9,29.81,West,270,27.6,27.6,68,0.00,CLR,OVC,0.43,WeatherDisplay:10.37,2013-02-19 20:37:00,
2013-02-19 15:42:00,52.5,41.9,29.82,West,270,27.6,27.6,67,0.00,CLR,OVC,0.43,WeatherDisplay:10.37,2013-02-19 20:42:00,
2013-02-19 15:47:00,52.5,41.5,29.82,West,270,27.6,27.6,66,0.00,CLR,OVC,0.43,WeatherDisplay:10.37,2013-02-19 20:47:00,
2013-02-19 15:52:00,52.3,40.9,29.82,West,270,27.6,27.6,65,0.00,CLR,OVC,0.43,WeatherDisplay:10.37,2013-02-19 20:52:00,
2013-02-19 15:57:00,52.3,41.3,29.82,West,270,27.6,27.6,66,0.00,CLR,OVC,0.43,WeatherDisplay:10.37,2013-02-19 20:57:00,
2013-02-19 16:02:00,52.2,40.3,29.82,West,270,27.6,27.6,64,0.00,CLR,OVC,0.43,WeatherDisplay:10.37,2013-02-19 21:02:00,
2013-02-19 16:07:00,52.3,39.7,29.82,West,270,27.6,27.6,62,0.00,CLR,OVC,0.43,WeatherDisplay:10.37,2013-02-19 21:07:00,
2013-02-19 16:12:00,52.5,39.0,29.82,West,270,27.6,27.6,60,0.00,CLR,OVC,0.43,WeatherDisplay:10.37,2013-02-19 21:12:00,
2013-02-19 16:17:00,52.5,38.6,29.82,West,270,36.8,36.8,59,0.00,CLR,OVC,0.43,WeatherDisplay:10.37,2013-02-19 21:17:00,
2013-02-19 16:22:00,52.7,37.9,29.82,West,270,36.8,36.8,57,0.00,CLR,OVC,0.43,WeatherDisplay:10.37,2013-02-19 21:22:00,
2013-02-19 16:27:00,52.5,37.7,29.83,West,270,36.8,36.8,57,0.00,CLR,OVC,0.43,WeatherDisplay:10.37,2013-02-19 21:27:00,
2013-02-19 16:32:00,52.5,37.3,29.83,West,270,36.8,36.8,56,0.00,CLR,OVC,0.43,WeatherDisplay:10.37,2013-02-19 21:32:00,
2013-02-19 16:37:00,52.5,37.3,29.83,West,270,36.8,36.8,56,0.00,CLR,OVC,0.43,WeatherDisplay:10.37,2013-02-19 21:37:00,
2013-02-19 16:42:00,52.3,36.6,29.83,West,270,36.8,36.8,55,0.00,CLR,OVC,0.43,WeatherDisplay:10.37,2013-02-19 21:42:00,
2013-02-19 16:47:00,52.3,36.2,29.83,West,270,36.8,36.8,54,0.00,CLR,OVC,0.43,WeatherDisplay:10.37,2013-02-19 21:47:00,
2013-02-19 16:52:00,52.3,35.7,29.83,West,270,36.8,36.8,53,0.00,CLR,OVC,0.43,WeatherDisplay:10.37,2013-02-19 21:52:00,
2013-02-19 16:57:00,52.2,36.0,29.83,West,270,36.8,36.8,54,0.00,CLR,OVC,0.43,WeatherDisplay:10.37,2013-02-19 21:57:00,
2013-02-19 17:02:00,52.0,35.4,29.83,West,270,36.8,36.8,53,0.00,CLR,OVC,0.43,WeatherDisplay:10.37,2013-02-19 22:02:00,
2013-02-19 17:07:00,51.8,35.2,29.83,West,270,36.8,36.8,53,0.00,CLR,OVC,0.43,WeatherDisplay:10.37,2013-02-19 22:07:00,
2013-02-19 17:12:00,51.4,35.3,29.84,West,270,36.8,36.8,54,0.00,CLR,OVC,0.43,WeatherDisplay:10.37,2013-02-19 22:12:00,
2013-02-19 17:17:00,51.4,34.9,29.84,West,270,36.8,36.8,53,0.00,CLR,OVC,0.43,WeatherDisplay:10.37,2013-02-19 22:17:00,
2013-02-19 17:22:00,51.1,33.6,29.84,West,270,33.4,33.4,51,0.00,CLR,OVC,0.43,WeatherDisplay:10.37,2013-02-19 22:22:00,
2013-02-19 17:27:00,50.9,33.4,29.84,West,270,33.4,33.4,51,0.00,CLR,OVC,0.43,WeatherDisplay:10.37,2013-02-19 22:27:00,
2013-02-19 17:32:00,50.7,31.7,29.84,West,270,33.4,33.4,48,0.00,CLR,OVC,0.43,WeatherDisplay:10.37,2013-02-19 22:32:00,
2013-02-19 17:37:00,50.7,31.7,29.85,West,270,33.4,33.4,48,0.00,CLR,OVC,0.43,WeatherDisplay:10.37,2013-02-19 22:37:00,
2013-02-19 17:42:00,50.5,31.6,29.85,West,270,33.4,33.4,48,0.00,CLR,OVC,0.43,WeatherDisplay:10.37,2013-02-19 22:42:00,
2013-02-19 17:47:00,50.4,30.9,29.85,West,270,33.4,33.4,47,0.00,CLR,OVC,0.43,WeatherDisplay:10.37,2013-02-19 22:47:00,
2013-02-19 17:52:00,50.2,30.2,29.85,West,270,33.4,33.4,46,0.00,CLR,OVC,0.43,WeatherDisplay:10.37,2013-02-19 22:52:00,
2013-02-19 17:57:00,50.0,29.5,29.86,West,270,33.4,33.4,45,0.00,CLR,OVC,0.43,WeatherDisplay:10.37,2013-02-19 22:57:00,
2013-02-19 18:02:00,49.8,29.8,29.86,West,270,33.4,33.4,46,0.00,CLR,OVC,0.43,WeatherDisplay:10.37,2013-02-19 23:02:00,
2013-02-19 18:07:00,49.6,29.7,29.86,West,270,33.4,33.4,46,0.00,CLR,OVC,0.43,WeatherDisplay:10.37,2013-02-19 23:07:00,
2013-02-19 18:12:00,49.3,29.4,29.86,West,270,33.4,33.4,46,0.00,CLR,OVC,0.43,WeatherDisplay:10.37,2013-02-19 23:12:00,
2013-02-19 18:17:00,48.9,29.0,29.86,West,280,33.4,33.4,46,0.00,CLR,OVC,0.43,WeatherDisplay:10.37,2013-02-19 23:17:00,
2013-02-19 18:22:00,48.7,28.9,29.86,West,280,28.8,28.8,46,0.00,CLR,OVC,0.43,WeatherDisplay:10.37,2013-02-19 23:22:00,
2013-02-19 18:27:00,48.7,28.9,29.86,West,280,28.8,28.8,46,0.00,CLR,OVC,0.43,WeatherDisplay:10.37,2013-02-19 23:27:00,
2013-02-19 18:32:00,48.4,28.0,29.87,West,280,28.8,28.8,45,0.00,CLR,OVC,0.43,WeatherDisplay:10.37,2013-02-19 23:32:00,
2013-02-19 18:37:00,48.4,28.5,29.87,West,280,28.8,28.8,46,0.00,CLR,OVC,0.43,WeatherDisplay:10.37,2013-02-19 23:37:00,
2013-02-19 18:42:00,48.0,28.2,29.87,West,280,28.8,28.8,46,0.00,CLR,OVC,0.43,WeatherDisplay:10.37,2013-02-19 23:42:00,
2013-02-19 18:47:00,47.8,28.6,29.87,West,280,28.8,28.8,47,0.00,CLR,OVC,0.43,WeatherDisplay:10.37,2013-02-19 23:47:00,
2013-02-19 18:52:00,47.5,28.2,29.88,West,280,28.8,28.8,47,0.00,CLR,OVC,0.43,WeatherDisplay:10.37,2013-02-19 23:52:00,
2013-02-19 18:57:00,47.3,29.1,29.88,West,280,28.8,28.8,49,0.00,CLR,OVC,0.43,WeatherDisplay:10.37,2013-02-19 23:57:00,
2013-02-19 19:02:00,46.8,28.1,29.88,West,280,28.8,28.8,48,0.00,CLR,OVC,0.43,WeatherDisplay:10.37,2013-02-20 00:02:00,
2013-02-19 19:07:00,46.6,28.9,29.89,West,280,28.8,28.8,50,0.00,CLR,OVC,0.43,WeatherDisplay:10.37,2013-02-20 00:07:00,
2013-02-19 19:12:00,46.2,28.1,29.89,West,280,28.8,28.8,49,0.00,CLR,OVC,0.43,WeatherDisplay:10.37,2013-02-20 00:12:00,
2013-02-19 19:17:00,46.0,27.9,29.89,West,280,28.8,28.8,49,0.00,CLR,OVC,0.43,WeatherDisplay:10.37,2013-02-20 00:17:00,
2013-02-19 19:22:00,46.0,28.4,29.90,West,280,9.2,9.2,50,0.00,CLR,OVC,0.43,WeatherDisplay:10.37,2013-02-20 00:22:00,
2013-02-19 19:27:00,45.7,28.1,29.89,West,280,9.2,9.2,50,0.00,CLR,OVC,0.43,WeatherDisplay:10.37,2013-02-20 00:27:00,
2013-02-19 19:32:00,45.3,28.2,29.90,West,280,9.2,9.2,51,0.00,CLR,OVC,0.43,WeatherDisplay:10.37,2013-02-20 00:32:00,
2013-02-19 19:37:00,45.1,28.5,29.90,West,280,9.2,9.2,52,0.00,CLR,OVC,0.43,WeatherDisplay:10.37,2013-02-20 00:37:00,
2013-02-19 19:42:00,45.0,28.4,29.90,West,280,9.2,9.2,52,0.00,CLR,OVC,0.43,WeatherDisplay:10.37,2013-02-20 00:42:00,
2013-02-19 19:47:00,44.6,28.5,29.90,West,280,9.2,9.2,53,0.00,CLR,OVC,0.43,WeatherDisplay:10.37,2013-02-20 00:47:00,
2013-02-19 19:52:00,44.2,28.2,29.90,West,280,9.2,9.2,53,0.00,CLR,OVC,0.43,WeatherDisplay:10.37,2013-02-20 00:52:00,
2013-02-19 19:57:00,44.1,28.0,29.90,West,280,9.2,9.2,53,0.00,CLR,OVC,0.43,WeatherDisplay:10.37,2013-02-20 00:57:00,
2013-02-19 20:02:00,43.7,27.7,29.90,West,280,9.2,9.2,53,0.00,CLR,OVC,0.43,WeatherDisplay:10.37,2013-02-20 01:02:00,
2013-02-19 20:07:00,43.5,27.5,29.90,West,280,9.2,9.2,53,0.00,CLR,OVC,0.43,WeatherDisplay:10.37,2013-02-20 01:07:00,
2013-02-19 20:12:00,43.3,28.2,29.90,West,280,9.2,9.2,55,0.00,CLR,OVC,0.43,WeatherDisplay:10.37,2013-02-20 01:12:00,
2013-02-19 20:17:00,43.0,27.9,29.90,West,280,15.0,15.0,55,0.00,CLR,OVC,0.43,WeatherDisplay:10.37,2013-02-20 01:17:00,
2013-02-19 20:22:00,42.8,27.7,29.90,West,280,15.0,15.0,55,0.00,CLR,OVC,0.43,WeatherDisplay:10.37,2013-02-20 01:22:00,
2013-02-19 20:27:00,42.4,27.8,29.90,West,280,15.0,15.0,56,0.00,CLR,OVC,0.43,WeatherDisplay:10.37,2013-02-20 01:27:00,
2013-02-19 20:32:00,42.1,27.5,29.90,West,280,15.0,15.0,56,0.00,CLR,OVC,0.43,WeatherDisplay:10.37,2013-02-20 01:32:00,
2013-02-19 20:37:00,41.7,27.2,29.91,West,280,15.0,15.0,56,0.00,CLR,OVC,0.43,WeatherDisplay:10.37,2013-02-20 01:37:00,
2013-02-19 20:42:00,41.5,27.4,29.91,West,280,15.0,15.0,57,0.00,CLR,OVC,0.43,WeatherDisplay:10.37,2013-02-20 01:42:00,
2013-02-19 20:47:00,41.4,27.3,29.91,West,280,15.0,15.0,57,0.00,CLR,OVC,0.43,WeatherDisplay:10.37,2013-02-20 01:47:00,
2013-02-19 20:52:00,41.2,27.5,29.91,West,280,15.0,15.0,58,0.00,CLR,OVC,0.43,WeatherDisplay:10.37,2013-02-20 01:52:00,
2013-02-19 20:57:00,40.8,27.2,29.91,West,280,15.0,15.0,58,0.00,CLR,OVC,0.43,WeatherDisplay:10.37,2013-02-20 01:57:00,
2013-02-19 21:02:00,40.8,27.6,29.91,West,280,15.0,15.0,59,0.00,CLR,OVC,0.43,WeatherDisplay:10.37,2013-02-20 02:02:00,
2013-02-19 21:07:00,40.3,27.5,29.92,West,280,15.0,15.0,60,0.00,CLR,OVC,0.43,WeatherDisplay:10.37,2013-02-20 02:07:00,
2013-02-19 21:12:00,39.9,27.1,29.91,West,280,15.0,15.0,60,0.00,CLR,OVC,0.43,WeatherDisplay:10.37,2013-02-20 02:12:00,
2013-02-19 21:17:00,39.6,26.8,29.92,West,270,15.0,15.0,60,0.00,CLR,OVC,0.43,WeatherDisplay:10.37,2013-02-20 02:17:00,
2013-02-19 21:22:00,39.4,27.0,29.92,West,270,4.6,4.6,61,0.00,CLR,OVC,0.43,WeatherDisplay:10.37,2013-02-20 02:22:00,
2013-02-19 21:27:00,39.0,26.7,29.92,West,270,4.6,4.6,61,0.00,CLR,OVC,0.43,WeatherDisplay:10.37,2013-02-20 02:27:00,
2013-02-19 21:32:00,38.8,26.9,29.92,West,270,4.6,4.6,62,0.00,CLR,OVC,0.43,WeatherDisplay:10.37,2013-02-20 02:32:00,
2013-02-19 21:37:00,38.5,27.0,29.92,West,270,4.6,4.6,63,0.00,CLR,OVC,0.43,WeatherDisplay:10.37,2013-02-20 02:37:00,
2013-02-19 21:42:00,38.1,26.6,29.92,West,270,4.6,4.6,63,0.00,CLR,OVC,0.43,WeatherDisplay:10.37,2013-02-20 02:42:00,
2013-02-19 21:47:00,37.9,26.5,29.93,West,270,4.6,4.6,63,0.00,CLR,OVC,0.43,WeatherDisplay:10.37,2013-02-20 02:47:00,
2013-02-19 21:52:00,37.6,26.9,29.93,West,270,4.6,4.6,65,0.00,CLR,OVC,0.43,WeatherDisplay:10.37,2013-02-20 02:52:00,
2013-02-19 21:57:00,37.2,26.5,29.93,West,270,4.6,4.6,65,0.00,CLR,OVC,0.43,WeatherDisplay:10.37,2013-02-20 02:57:00,
2013-02-19 22:02:00,37.2,26.9,29.93,West,270,4.6,4.6,66,0.00,CLR,OVC,0.43,WeatherDisplay:10.37,2013-02-20 03:02:00,
2013-02-19 22:07:00,37.0,26.7,29.93,West,270,4.6,4.6,66,0.00,CLR,OVC,0.43,WeatherDisplay:10.37,2013-02-20 03:07:00,
2013-02-19 22:12:00,36.9,26.9,29.92,West,270,4.6,4.6,67,0.00,CLR,OVC,0.43,WeatherDisplay:10.37,2013-02-20 03:12:00,
2013-02-19 22:17:00,36.5,26.9,29.93,West,280,11.5,11.5,68,0.00,CLR,OVC,0.43,WeatherDisplay:10.37,2013-02-20 03:17:00,
2013-02-19 22:22:00,36.3,26.8,29.93,West,280,11.5,11.5,68,0.00,CLR,OVC,0.43,WeatherDisplay:10.37,2013-02-20 03:22:00,
2013-02-19 22:27:00,36.3,26.8,29.94,West,280,11.5,11.5,68,0.00,CLR,OVC,0.43,WeatherDisplay:10.37,2013-02-20 03:27:00,
2013-02-19 22:32:00,36.1,26.6,29.93,West,280,11.5,11.5,68,0.00,CLR,OVC,0.43,WeatherDisplay:10.37,2013-02-20 03:32:00,
2013-02-19 22:37:00,36.0,26.4,29.93,West,280,11.5,11.5,68,0.00,CLR,OVC,0.43,WeatherDisplay:10.37,2013-02-20 03:37:00,
2013-02-19 22:42:00,36.0,26.4,29.93,West,280,11.5,11.5,68,0.00,CLR,OVC,0.43,WeatherDisplay:10.37,2013-02-20 03:42:00,
2013-02-19 22:47:00,36.0,26.4,29.93,West,280,11.5,11.5,68,0.00,CLR,OVC,0.43,WeatherDisplay:10.37,2013-02-20 03:47:00,
2013-02-19 22:52:00,36.0,26.1,29.94,West,280,11.5,11.5,67,0.00,CLR,OVC,0.43,WeatherDisplay:10.37,2013-02-20 03:52:00,
2013-02-19 22:57:00,36.1,26.2,29.94,West,280,11.5,11.5,67,0.00,CLR,OVC,0.43,WeatherDisplay:10.37,2013-02-20 03:57:00,
2013-02-19 23:02:00,36.3,26.4,29.95,West,280,11.5,11.5,67,0.00,CLR,OVC,0.43,WeatherDisplay:10.37,2013-02-20 04:02:00,
2013-02-19 23:07:00,36.3,26.4,29.95,West,280,11.5,11.5,67,0.00,CLR,OVC,0.43,WeatherDisplay:10.37,2013-02-20 04:07:00,
2013-02-19 23:12:00,36.3,26.4,29.95,West,280,11.5,11.5,67,0.00,CLR,OVC,0.43,WeatherDisplay:10.37,2013-02-20 04:12:00,
2013-02-19 23:17:00,36.3,26.0,29.95,WNW,300,24.2,24.2,66,0.00,CLR,OVC,0.43,WeatherDisplay:10.37,2013-02-20 04:17:00,
2013-02-19 23:22:00,36.1,26.2,29.95,WNW,300,24.2,24.2,67,0.00,CLR,OVC,0.43,WeatherDisplay:10.37,2013-02-20 04:22:00,
2013-02-19 23:27:00,36.1,26.2,29.95,WNW,300,24.2,24.2,67,0.00,CLR,OVC,0.43,WeatherDisplay:10.37,2013-02-20 04:27:00,
2013-02-19 23:32:00,36.1,26.2,29.95,WNW,300,24.2,24.2,67,0.00,CLR,OVC,0.43,WeatherDisplay:10.37,2013-02-20 04:32:00,
2013-02-19 23:37:00,36.1,26.2,29.96,WNW,300,24.2,24.2,67,0.00,CLR,OVC,0.43,WeatherDisplay:10.37,2013-02-20 04:37:00,
2013-02-19 23:42:00,36.0,26.1,29.95,WNW,300,24.2,24.2,67,0.00,CLR,OVC,0.43,WeatherDisplay:10.37,2013-02-20 04:42:00,
2013-02-19 23:47:00,36.0,26.1,29.95,WNW,300,24.2,24.2,67,0.00,CLR,OVC,0.43,WeatherDisplay:10.37,2013-02-20 04:47:00,
2013-02-19 23:52:00,36.0,25.7,29.96,WNW,300,24.2,24.2,66,0.00,CLR,OVC,0.43,WeatherDisplay:10.37,2013-02-20 04:52:00,
2013-02-19 23:57:00,36.0,25.3,29.95,WNW,300,24.2,24.2,65,0.00,CLR,OVC,0.43,WeatherDisplay:10.37,2013-02-20 04:57:00,